createdAt,value
2016-10-01T00:00:24.941Z,10.02
2016-10-01T00:01:24.937Z,10.04
2016-10-01T00:02:24.918Z,10.02
2016-10-01T00:03:24.906Z,9.91
2016-10-01T00:04:24.910Z,9.96
2016-10-01T00:05:24.895Z,9.9
2016-10-01T00:06:24.885Z,9.9
2016-10-01T00:07:24.881Z,10.01
2016-10-01T00:08:24.871Z,9.93
2016-10-01T00:09:24.868Z,9.89
2016-10-01T00:10:24.866Z,9.9
2016-10-01T00:11:24.851Z,9.87
2016-10-01T00:12:24.847Z,9.83
2016-10-01T00:13:24.839Z,9.87
2016-10-01T00:14:25.135Z,9.84
2016-10-01T00:15:24.820Z,9.93
2016-10-01T00:16:24.811Z,9.84
2016-10-01T00:17:25.526Z,9.86
2016-10-01T00:18:26.964Z,9.9
2016-10-01T00:19:24.802Z,9.75
2016-10-01T00:20:24.784Z,9.84
2016-10-01T00:21:26.190Z,9.81
2016-10-01T00:22:24.768Z,9.89
2016-10-01T00:23:24.988Z,9.83
2016-10-01T00:24:24.757Z,9.91
2016-10-01T00:25:24.741Z,9.86
2016-10-01T00:26:26.339Z,9.81
2016-10-01T00:27:25.842Z,9.81
2016-10-01T00:28:25.793Z,9.84
2016-10-01T00:29:25.725Z,9.86
2016-10-01T00:30:25.534Z,9.79
2016-10-01T00:31:24.700Z,9.87
2016-10-01T00:32:24.692Z,9.86
2016-10-01T00:33:24.685Z,9.81
2016-10-01T00:34:24.674Z,9.76
2016-10-01T00:35:24.667Z,9.86
2016-10-01T00:36:24.657Z,9.79
2016-10-01T00:37:24.654Z,9.81
2016-10-01T00:38:24.650Z,9.81
2016-10-01T00:39:24.634Z,9.81
2016-10-01T00:40:24.632Z,9.81
2016-10-01T00:41:24.623Z,9.76
2016-10-01T00:42:24.615Z,9.79
2016-10-01T00:43:24.612Z,9.76
2016-10-01T00:44:39.515Z,9.83
2016-10-01T00:45:24.901Z,9.76
2016-10-01T00:46:39.499Z,9.68
2016-10-01T00:47:25.330Z,9.76
2016-10-01T00:48:24.571Z,9.78
2016-10-01T00:49:25.160Z,9.68
2016-10-01T00:50:24.867Z,9.68
2016-10-01T00:51:24.549Z,9.71
2016-10-01T00:52:24.538Z,9.72
2016-10-01T00:54:24.976Z,9.74
2016-10-01T00:55:25.449Z,9.72
2016-10-01T00:56:24.604Z,9.71
2016-10-01T00:57:24.503Z,9.72
2016-10-01T00:58:24.594Z,9.71
2016-10-01T00:59:24.739Z,9.64
2016-10-01T01:00:24.478Z,9.68
2016-10-01T01:01:24.471Z,9.74
2016-10-01T01:02:24.468Z,9.69
2016-10-01T01:03:24.457Z,9.65
2016-10-01T01:04:24.452Z,9.61
2016-10-01T01:05:24.441Z,9.65
2016-10-01T01:06:24.436Z,9.58
2016-10-01T01:07:24.427Z,9.61
2016-10-01T01:08:24.416Z,9.66
2016-10-01T01:09:24.416Z,9.61
2016-10-01T01:10:24.405Z,9.6
2016-10-01T01:11:24.393Z,9.61
2016-10-01T01:12:24.387Z,9.64
2016-10-01T01:13:24.382Z,9.65
2016-10-01T01:14:24.385Z,9.66
2016-10-01T01:15:24.362Z,9.65
2016-10-01T01:16:24.359Z,9.61
2016-10-01T01:17:24.347Z,9.6
2016-10-01T01:18:24.348Z,9.61
2016-10-01T01:19:24.332Z,9.61
2016-10-01T01:20:24.328Z,9.6
2016-10-01T01:21:24.317Z,9.6
2016-10-01T01:22:24.310Z,9.68
2016-10-01T01:23:24.303Z,9.64
2016-10-01T01:24:24.297Z,9.6
2016-10-01T01:25:24.292Z,9.6
2016-10-01T01:26:24.284Z,9.57
2016-10-01T01:27:24.274Z,9.54
2016-10-01T01:28:24.266Z,9.58
2016-10-01T01:29:24.261Z,9.58
2016-10-01T01:30:24.246Z,9.48
2016-10-01T01:31:24.244Z,9.56
2016-10-01T01:32:24.235Z,9.58
2016-10-01T01:33:24.224Z,9.61
2016-10-01T01:34:24.214Z,9.53
2016-10-01T01:36:27.514Z,9.57
2016-10-01T01:37:25.330Z,9.48
2016-10-01T01:38:25.182Z,9.54
2016-10-01T01:39:24.177Z,9.46
2016-10-01T01:40:25.359Z,9.47
2016-10-01T01:41:24.165Z,9.46
2016-10-01T01:42:24.155Z,9.5
2016-10-01T01:43:24.144Z,9.46
2016-10-01T01:44:25.004Z,9.5
2016-10-01T01:46:24.467Z,9.51
2016-10-01T01:47:24.450Z,9.46
2016-10-01T01:48:24.109Z,9.46
2016-10-01T01:49:24.864Z,9.4
2016-10-01T01:50:24.098Z,9.5
2016-10-01T01:51:24.087Z,9.39
2016-10-01T01:52:24.189Z,9.46
2016-10-01T01:53:24.074Z,9.38
2016-10-01T01:54:24.064Z,9.46
2016-10-01T01:55:24.047Z,9.47
2016-10-01T01:56:24.051Z,9.32
2016-10-01T01:57:24.031Z,9.47
2016-10-01T01:58:24.332Z,9.4
2016-10-01T01:59:24.027Z,9.38
2016-10-01T02:00:24.016Z,9.38
2016-10-01T02:01:24.006Z,9.36
2016-10-01T02:03:23.990Z,9.36
2016-10-01T02:04:24.234Z,9.36
2016-10-01T02:05:23.974Z,9.36
2016-10-01T02:06:23.971Z,9.38
2016-10-01T02:07:23.955Z,9.31
2016-10-01T02:08:23.955Z,9.46
2016-10-01T02:09:23.941Z,9.39
2016-10-01T02:10:23.935Z,9.33
2016-10-01T02:11:24.727Z,9.39
2016-10-01T02:13:24.610Z,9.42
2016-10-01T02:14:23.901Z,9.43
2016-10-01T02:15:24.394Z,9.42
2016-10-01T02:16:23.887Z,9.36
2016-10-01T02:17:23.879Z,9.43
2016-10-01T02:18:23.871Z,9.47
2016-10-01T02:19:23.858Z,9.5
2016-10-01T02:20:23.851Z,9.47
2016-10-01T02:21:23.843Z,9.43
2016-10-01T02:22:23.844Z,9.48
2016-10-01T02:23:23.833Z,9.48
2016-10-01T02:24:23.821Z,9.46
2016-10-01T02:25:23.816Z,9.5
2016-10-01T02:26:23.806Z,9.58
2016-10-01T02:27:23.797Z,9.56
2016-10-01T02:28:23.792Z,9.64
2016-10-01T02:29:23.781Z,9.61
2016-10-01T02:30:23.774Z,9.72
2016-10-01T02:31:23.768Z,9.66
2016-10-01T02:32:23.758Z,9.69
2016-10-01T02:33:23.750Z,9.76
2016-10-01T02:34:23.746Z,9.76
2016-10-01T02:35:23.742Z,9.78
2016-10-01T02:36:23.730Z,9.87
2016-10-01T02:37:23.723Z,9.84
2016-10-01T02:38:23.720Z,9.86
2016-10-01T02:39:23.701Z,9.91
2016-10-01T02:40:23.694Z,9.93
2016-10-01T02:41:23.693Z,9.94
2016-10-01T02:42:23.680Z,10.04
2016-10-01T02:43:23.678Z,10.05
2016-10-01T02:44:23.669Z,10.02
2016-10-01T02:45:23.656Z,9.96
2016-10-01T02:46:23.651Z,9.99
2016-10-01T02:47:23.645Z,10.09
2016-10-01T02:48:23.633Z,10.09
2016-10-01T02:49:23.630Z,10.18
2016-10-01T02:50:23.624Z,10.17
2016-10-01T02:51:23.609Z,10.2
2016-10-01T02:52:23.614Z,10.27
2016-10-01T02:53:23.597Z,10.18
2016-10-01T02:54:24.379Z,10.23
2016-10-01T02:55:26.026Z,10.33
2016-10-01T02:56:25.965Z,10.36
2016-10-01T02:57:23.562Z,10.3
2016-10-01T02:58:23.563Z,10.4
2016-10-01T02:59:23.820Z,10.33
2016-10-01T03:00:23.739Z,10.48
2016-10-01T03:01:23.541Z,10.48
2016-10-01T03:02:23.542Z,10.45
2016-10-01T03:04:24.848Z,10.48
2016-10-01T03:05:24.783Z,10.52
2016-10-01T03:06:23.721Z,10.59
2016-10-01T03:07:23.492Z,10.59
2016-10-01T03:08:23.492Z,10.48
2016-10-01T03:09:23.482Z,10.63
2016-10-01T03:10:23.476Z,10.63
2016-10-01T03:11:23.484Z,10.64
2016-10-01T03:12:23.478Z,10.67
2016-10-01T03:13:23.449Z,10.66
2016-10-01T03:14:23.455Z,10.67
2016-10-01T03:15:23.439Z,10.64
2016-10-01T03:16:23.431Z,10.74
2016-10-01T03:17:23.418Z,10.78
2016-10-01T03:18:23.415Z,10.74
2016-10-01T03:19:23.406Z,10.78
2016-10-01T03:20:24.411Z,10.73
2016-10-01T03:21:24.491Z,10.71
2016-10-01T03:22:24.935Z,10.71
2016-10-01T03:23:23.680Z,10.74
2016-10-01T03:24:23.978Z,10.67
2016-10-01T03:25:23.361Z,10.76
2016-10-01T03:26:23.353Z,10.78
2016-10-01T03:27:23.651Z,10.81
2016-10-01T03:28:23.347Z,10.82
2016-10-01T03:29:23.791Z,10.85
2016-10-01T03:30:23.332Z,10.94
2016-10-01T03:31:23.574Z,10.92
2016-10-01T03:33:23.310Z,10.92
2016-10-01T03:34:24.102Z,10.89
2016-10-01T03:35:23.619Z,10.82
2016-10-01T03:36:23.288Z,10.97
2016-10-01T03:37:23.282Z,10.92
2016-10-01T03:38:23.281Z,10.96
2016-10-01T03:39:23.271Z,10.88
2016-10-01T03:40:23.514Z,10.97
2016-10-01T03:41:23.254Z,11.06
2016-10-01T03:42:23.249Z,11.07
2016-10-01T03:43:23.239Z,11.1
2016-10-01T03:44:23.231Z,11.18
2016-10-01T03:45:23.225Z,11.07
2016-10-01T03:46:23.216Z,11.19
2016-10-01T03:47:23.216Z,11.14
2016-10-01T03:48:23.203Z,11.27
2016-10-01T03:49:23.203Z,11.27
2016-10-01T03:50:23.191Z,11.25
2016-10-01T03:51:23.186Z,11.37
2016-10-01T03:52:23.177Z,11.22
2016-10-01T03:53:23.167Z,11.33
2016-10-01T03:54:23.165Z,11.35
2016-10-01T03:55:23.160Z,11.27
2016-10-01T03:56:23.153Z,11.28
2016-10-01T03:57:23.144Z,11.28
2016-10-01T03:58:23.137Z,11.37
2016-10-01T03:59:23.128Z,11.33
2016-10-01T04:00:23.370Z,11.35
2016-10-01T04:01:23.113Z,11.32
2016-10-01T04:02:23.113Z,11.42
2016-10-01T04:03:23.098Z,11.43
2016-10-01T04:04:23.092Z,11.37
2016-10-01T04:05:23.092Z,11.39
2016-10-01T04:06:23.083Z,11.33
2016-10-01T04:07:23.072Z,11.4
2016-10-01T04:08:23.067Z,11.37
2016-10-01T04:09:23.064Z,11.33
2016-10-01T04:10:23.070Z,11.33
2016-10-01T04:11:23.048Z,11.35
2016-10-01T04:12:24.361Z,11.27
2016-10-01T04:13:25.897Z,11.27
2016-10-01T04:14:23.020Z,11.32
2016-10-01T04:15:23.023Z,11.32
2016-10-01T04:16:23.109Z,11.21
2016-10-01T04:17:23.562Z,11.29
2016-10-01T04:18:23.492Z,11.24
2016-10-01T04:19:22.990Z,11.28
2016-10-01T04:20:22.990Z,11.32
2016-10-01T04:21:24.500Z,11.36
2016-10-01T04:22:24.356Z,11.36
2016-10-01T04:23:24.390Z,11.24
2016-10-01T04:24:23.327Z,11.35
2016-10-01T04:25:22.950Z,11.28
2016-10-01T04:26:22.949Z,11.22
2016-10-01T04:27:22.942Z,11.28
2016-10-01T04:28:22.932Z,11.33
2016-10-01T04:29:22.926Z,11.24
2016-10-01T04:30:22.924Z,11.33
2016-10-01T04:31:22.909Z,11.27
2016-10-01T04:32:22.907Z,11.33
2016-10-01T04:33:22.896Z,11.18
2016-10-01T04:34:22.892Z,11.18
2016-10-01T04:35:22.884Z,11.17
2016-10-01T04:36:22.880Z,11.17
2016-10-01T04:37:22.873Z,11.1
2016-10-01T04:38:38.279Z,11.11
2016-10-01T04:39:24.661Z,11.03
2016-10-01T04:40:22.855Z,10.97
2016-10-01T04:41:23.010Z,10.96
2016-10-01T04:42:22.838Z,10.99
2016-10-01T04:43:22.978Z,10.97
2016-10-01T04:44:23.025Z,10.97
2016-10-01T04:45:22.818Z,10.88
2016-10-01T04:46:22.814Z,10.86
2016-10-01T04:47:37.721Z,10.89
2016-10-01T04:48:23.349Z,10.86
2016-10-01T04:49:22.790Z,10.86
2016-10-01T04:50:37.697Z,10.79
2016-10-01T04:52:22.775Z,10.86
2016-10-01T04:53:22.760Z,10.85
2016-10-01T04:54:22.758Z,10.86
2016-10-01T04:55:22.751Z,10.92
2016-10-01T04:56:22.991Z,10.88
2016-10-01T04:57:22.734Z,10.91
2016-10-01T04:58:22.730Z,10.86
2016-10-01T04:59:22.720Z,10.86
2016-10-01T05:00:22.716Z,10.88
2016-10-01T05:01:22.960Z,10.91
2016-10-01T05:02:22.702Z,11
2016-10-01T05:03:22.691Z,11.04
2016-10-01T05:04:22.685Z,10.94
2016-10-01T05:05:22.986Z,10.89
2016-10-01T05:06:23.017Z,10.96
2016-10-01T05:07:22.663Z,11.09
2016-10-01T05:08:22.657Z,11.11
2016-10-01T05:09:22.650Z,11.1
2016-10-01T05:10:22.646Z,11.06
2016-10-01T05:11:22.648Z,11.1
2016-10-01T05:12:22.631Z,11.11
2016-10-01T05:13:22.623Z,11.04
2016-10-01T05:14:22.621Z,11.1
2016-10-01T05:15:22.617Z,11.14
2016-10-01T05:16:22.600Z,11.15
2016-10-01T05:17:22.595Z,11.15
2016-10-01T05:18:22.590Z,11.14
2016-10-01T05:19:22.584Z,11.17
2016-10-01T05:20:22.577Z,11.32
2016-10-01T05:21:22.565Z,11.15
2016-10-01T05:22:22.858Z,11.28
2016-10-01T05:23:22.550Z,11.27
2016-10-01T05:24:22.544Z,11.28
2016-10-01T05:25:22.544Z,11.35
2016-10-01T05:26:22.545Z,11.28
2016-10-01T05:27:22.538Z,11.32
2016-10-01T05:28:22.521Z,11.32
2016-10-01T05:29:22.517Z,11.35
2016-10-01T05:30:24.026Z,11.27
2016-10-01T05:31:22.561Z,11.29
2016-10-01T05:32:22.747Z,11.39
2016-10-01T05:33:22.650Z,11.35
2016-10-01T05:34:22.482Z,11.33
2016-10-01T05:35:22.474Z,11.36
2016-10-01T05:36:22.461Z,11.44
2016-10-01T05:37:22.460Z,11.39
2016-10-01T05:38:22.451Z,11.43
2016-10-01T05:39:23.640Z,11.36
2016-10-01T05:40:25.247Z,11.47
2016-10-01T05:41:22.459Z,11.39
2016-10-01T05:42:22.426Z,11.46
2016-10-01T05:43:22.725Z,11.39
2016-10-01T05:44:22.412Z,11.42
2016-10-01T05:45:22.413Z,11.51
2016-10-01T05:46:22.533Z,11.44
2016-10-01T05:47:22.394Z,11.52
2016-10-01T05:48:22.388Z,11.49
2016-10-01T05:49:22.382Z,11.61
2016-10-01T05:50:22.386Z,11.55
2016-10-01T05:51:22.365Z,11.58
2016-10-01T05:52:22.357Z,11.67
2016-10-01T05:53:22.354Z,11.7
2016-10-01T05:54:22.349Z,11.72
2016-10-01T05:55:22.339Z,11.7
2016-10-01T05:56:23.289Z,11.76
2016-10-01T05:57:52.959Z,11.86
2016-10-01T05:58:22.571Z,11.83
2016-10-01T06:00:22.359Z,11.82
2016-10-01T06:01:22.549Z,11.91
2016-10-01T06:02:22.295Z,11.95
2016-10-01T06:03:22.288Z,12.07
2016-10-01T06:04:22.278Z,12.09
2016-10-01T06:05:22.778Z,12.16
2016-10-01T06:06:22.426Z,12.17
2016-10-01T06:07:22.412Z,12.12
2016-10-01T06:08:22.255Z,12.17
2016-10-01T06:09:22.247Z,12.23
2016-10-01T06:10:22.293Z,12.23
2016-10-01T06:11:22.746Z,12.34
2016-10-01T06:12:22.385Z,12.29
2016-10-01T06:13:22.230Z,12.28
2016-10-01T06:14:22.244Z,12.35
2016-10-01T06:15:22.213Z,12.45
2016-10-01T06:16:22.313Z,12.38
2016-10-01T06:17:22.225Z,12.46
2016-10-01T06:18:22.196Z,12.5
2016-10-01T06:19:22.190Z,12.45
2016-10-01T06:20:22.181Z,12.46
2016-10-01T06:21:22.181Z,12.47
2016-10-01T06:22:22.167Z,12.46
2016-10-01T06:23:22.170Z,12.52
2016-10-01T06:24:22.161Z,12.57
2016-10-01T06:25:22.151Z,12.56
2016-10-01T06:26:22.143Z,12.64
2016-10-01T06:27:22.152Z,12.54
2016-10-01T06:28:22.141Z,12.62
2016-10-01T06:29:22.131Z,12.64
2016-10-01T06:30:22.122Z,12.67
2016-10-01T06:31:22.116Z,12.67
2016-10-01T06:32:22.116Z,12.68
2016-10-01T06:33:22.100Z,12.67
2016-10-01T06:34:22.108Z,12.67
2016-10-01T06:35:22.092Z,12.72
2016-10-01T06:36:22.088Z,12.75
2016-10-01T06:37:22.380Z,12.74
2016-10-01T06:38:22.080Z,12.72
2016-10-01T06:39:22.070Z,12.83
2016-10-01T06:40:22.057Z,12.78
2016-10-01T06:41:22.063Z,12.96
2016-10-01T06:42:22.058Z,12.97
2016-10-01T06:43:22.051Z,13.01
2016-10-01T06:44:22.042Z,13.08
2016-10-01T06:45:22.036Z,13.17
2016-10-01T06:46:22.034Z,13.19
2016-10-01T06:47:22.021Z,13.15
2016-10-01T06:48:22.832Z,13.28
2016-10-01T06:49:22.872Z,13.3
2016-10-01T06:50:23.096Z,13.23
2016-10-01T06:51:23.019Z,13.33
2016-10-01T06:52:22.007Z,13.42
2016-10-01T06:53:22.302Z,13.42
2016-10-01T06:54:22.104Z,13.52
2016-10-01T06:55:21.980Z,13.57
2016-10-01T06:56:22.282Z,13.69
2016-10-01T06:57:23.552Z,13.73
2016-10-01T06:58:22.366Z,13.88
2016-10-01T06:59:22.653Z,13.91
2016-10-01T07:00:22.572Z,14.04
2016-10-01T07:01:21.945Z,14.04
2016-10-01T07:02:21.952Z,14.14
2016-10-01T07:03:21.941Z,14.18
2016-10-01T07:04:21.938Z,14.18
2016-10-01T07:05:21.937Z,14.2
2016-10-01T07:06:21.927Z,14.36
2016-10-01T07:07:21.923Z,14.27
2016-10-01T07:08:21.912Z,14.36
2016-10-01T07:09:21.914Z,14.52
2016-10-01T07:10:21.907Z,14.5
2016-10-01T07:11:21.902Z,14.69
2016-10-01T07:12:21.902Z,14.64
2016-10-01T07:13:21.893Z,14.8
2016-10-01T07:14:21.891Z,14.88
2016-10-01T07:16:21.938Z,14.84
2016-10-01T07:17:21.877Z,14.89
2016-10-01T07:18:21.873Z,14.92
2016-10-01T07:19:22.219Z,15.09
2016-10-01T07:20:21.862Z,15.02
2016-10-01T07:21:21.864Z,15.16
2016-10-01T07:22:21.859Z,15.35
2016-10-01T07:23:23.809Z,15.44
2016-10-01T07:25:37.162Z,15.46
2016-10-01T07:26:21.889Z,15.47
2016-10-01T07:27:21.838Z,15.49
2016-10-01T07:28:22.331Z,15.49
2016-10-01T07:29:21.838Z,15.43
2016-10-01T07:30:21.829Z,15.49
2016-10-01T07:31:21.824Z,15.54
2016-10-01T07:32:21.814Z,15.6
2016-10-01T07:33:21.813Z,15.69
2016-10-01T07:34:21.811Z,15.72
2016-10-01T07:35:21.806Z,15.8
2016-10-01T07:36:21.814Z,15.71
2016-10-01T07:37:21.802Z,15.62
2016-10-01T07:38:21.798Z,15.64
2016-10-01T07:39:21.789Z,15.64
2016-10-01T07:40:21.791Z,15.64
2016-10-01T07:41:21.787Z,15.54
2016-10-01T07:42:21.785Z,15.51
2016-10-01T07:43:21.778Z,15.53
2016-10-01T07:44:21.772Z,15.56
2016-10-01T07:45:21.773Z,15.54
2016-10-01T07:46:21.785Z,15.53
2016-10-01T07:47:21.759Z,15.54
2016-10-01T07:48:21.761Z,15.53
2016-10-01T07:49:22.058Z,15.51
2016-10-01T07:50:22.052Z,15.54
2016-10-01T07:51:21.750Z,15.5
2016-10-01T07:52:21.750Z,15.43
2016-10-01T07:53:21.738Z,15.43
2016-10-01T07:54:21.739Z,15.43
2016-10-01T07:55:21.739Z,15.41
2016-10-01T07:56:21.733Z,15.44
2016-10-01T07:57:21.731Z,15.38
2016-10-01T07:58:21.726Z,15.5
2016-10-01T07:59:21.719Z,15.56
2016-10-01T08:00:21.716Z,15.44
2016-10-01T08:01:21.709Z,15.41
2016-10-01T08:02:21.714Z,15.31
2016-10-01T08:03:21.704Z,15.44
2016-10-01T08:04:21.703Z,15.39
2016-10-01T08:05:21.704Z,15.36
2016-10-01T08:07:21.691Z,15.41
2016-10-01T08:08:21.838Z,15.5
2016-10-01T08:09:21.685Z,15.5
2016-10-01T08:10:22.577Z,15.5
2016-10-01T08:11:21.676Z,15.6
2016-10-01T08:12:21.671Z,15.53
2016-10-01T08:13:21.673Z,15.53
2016-10-01T08:14:21.664Z,15.53
2016-10-01T08:15:22.887Z,15.57
2016-10-01T08:16:23.179Z,15.49
2016-10-01T08:17:21.653Z,15.59
2016-10-01T08:18:23.569Z,15.59
2016-10-01T08:19:22.480Z,15.68
2016-10-01T08:20:21.645Z,15.6
2016-10-01T08:21:21.634Z,15.53
2016-10-01T08:22:21.631Z,15.64
2016-10-01T08:23:21.624Z,15.65
2016-10-01T08:24:21.626Z,15.62
2016-10-01T08:25:21.617Z,15.67
2016-10-01T08:26:21.617Z,15.71
2016-10-01T08:27:21.616Z,15.75
2016-10-01T08:28:21.610Z,15.78
2016-10-01T08:29:21.609Z,15.71
2016-10-01T08:30:21.597Z,15.78
2016-10-01T08:31:21.593Z,15.75
2016-10-01T08:33:22.595Z,15.74
2016-10-01T08:34:36.503Z,15.64
2016-10-01T08:35:21.580Z,15.65
2016-10-01T08:36:21.581Z,15.64
2016-10-01T08:37:21.771Z,15.6
2016-10-01T08:38:21.588Z,15.5
2016-10-01T08:39:21.571Z,15.51
2016-10-01T08:40:21.567Z,15.57
2016-10-01T08:41:22.417Z,15.5
2016-10-01T08:42:21.906Z,15.54
2016-10-01T08:43:21.564Z,15.53
2016-10-01T08:44:21.551Z,15.51
2016-10-01T08:45:21.549Z,15.5
2016-10-01T08:46:21.898Z,15.59
2016-10-01T08:47:21.535Z,15.47
2016-10-01T08:48:21.526Z,15.59
2016-10-01T08:49:21.531Z,15.54
2016-10-01T08:50:21.523Z,15.56
2016-10-01T08:51:21.541Z,15.47
2016-10-01T08:52:21.528Z,15.5
2016-10-01T08:53:21.514Z,15.5
2016-10-01T08:54:21.510Z,15.38
2016-10-01T08:55:21.502Z,15.44
2016-10-01T08:56:21.497Z,15.44
2016-10-01T08:57:21.506Z,15.47
2016-10-01T08:58:21.506Z,15.44
2016-10-01T08:59:21.489Z,15.32
2016-10-01T09:00:21.485Z,15.31
2016-10-01T09:01:21.480Z,15.21
2016-10-01T09:02:21.497Z,15.23
2016-10-01T09:03:21.480Z,15.23
2016-10-01T09:04:21.465Z,15.23
2016-10-01T09:05:21.470Z,15.23
2016-10-01T09:06:21.457Z,15.19
2016-10-01T09:07:21.460Z,15.19
2016-10-01T09:08:21.451Z,15.23
2016-10-01T09:09:21.752Z,15.19
2016-10-01T09:10:21.442Z,15.2
2016-10-01T09:11:21.440Z,15.11
2016-10-01T09:12:21.435Z,15.13
2016-10-01T09:13:21.433Z,15.07
2016-10-01T09:14:21.435Z,15.07
2016-10-01T09:15:21.428Z,15.07
2016-10-01T09:16:21.422Z,15.09
2016-10-01T09:17:21.416Z,15.07
2016-10-01T09:18:21.409Z,15.06
2016-10-01T09:19:21.409Z,15.03
2016-10-01T09:20:21.413Z,15.01
2016-10-01T09:21:21.402Z,14.95
2016-10-01T09:22:21.395Z,14.95
2016-10-01T09:23:21.391Z,14.81
2016-10-01T09:25:23.027Z,14.86
2016-10-01T09:26:23.398Z,14.73
2016-10-01T09:27:22.430Z,14.73
2016-10-01T09:28:21.501Z,14.78
2016-10-01T09:29:21.360Z,14.68
2016-10-01T09:30:21.356Z,14.72
2016-10-01T09:31:21.353Z,14.64
2016-10-01T09:32:21.349Z,14.58
2016-10-01T09:33:24.540Z,14.72
2016-10-01T09:34:22.816Z,14.57
2016-10-01T09:35:23.056Z,14.58
2016-10-01T09:36:22.273Z,14.65
2016-10-01T09:37:21.392Z,14.6
2016-10-01T09:38:21.634Z,14.62
2016-10-01T09:39:21.318Z,14.58
2016-10-01T09:40:21.320Z,14.45
2016-10-01T09:41:21.314Z,14.42
2016-10-01T09:42:21.303Z,14.46
2016-10-01T09:43:21.301Z,14.42
2016-10-01T09:44:21.300Z,14.37
2016-10-01T09:45:21.297Z,14.37
2016-10-01T09:46:21.296Z,14.24
2016-10-01T09:47:21.282Z,14.24
2016-10-01T09:48:21.284Z,14.35
2016-10-01T09:49:21.274Z,14.22
2016-10-01T09:50:21.581Z,14.25
2016-10-01T09:51:21.261Z,14.28
2016-10-01T09:52:22.262Z,14.25
2016-10-01T09:53:36.173Z,14.42
2016-10-01T09:54:36.921Z,14.37
2016-10-01T09:55:21.245Z,14.46
2016-10-01T09:56:21.257Z,14.42
2016-10-01T09:57:21.638Z,14.47
2016-10-01T09:58:21.235Z,14.52
2016-10-01T09:59:22.176Z,14.47
2016-10-01T10:00:21.436Z,14.39
2016-10-01T10:02:21.464Z,14.54
2016-10-01T10:03:21.206Z,14.54
2016-10-01T10:04:21.460Z,14.51
2016-10-01T10:05:21.195Z,14.54
2016-10-01T10:06:21.195Z,14.55
2016-10-01T10:07:21.439Z,14.52
2016-10-01T10:08:21.182Z,14.51
2016-10-01T10:09:21.178Z,14.52
2016-10-01T10:10:21.186Z,14.57
2016-10-01T10:11:21.177Z,14.55
2016-10-01T10:12:21.519Z,14.58
2016-10-01T10:13:21.162Z,14.58
2016-10-01T10:14:21.156Z,14.58
2016-10-01T10:15:21.159Z,14.69
2016-10-01T10:16:21.148Z,14.57
2016-10-01T10:17:21.392Z,14.64
2016-10-01T10:18:21.147Z,14.65
2016-10-01T10:19:21.135Z,14.64
2016-10-01T10:20:21.132Z,14.72
2016-10-01T10:21:21.131Z,14.78
2016-10-01T10:22:21.370Z,14.88
2016-10-01T10:23:21.120Z,14.89
2016-10-01T10:24:21.112Z,14.83
2016-10-01T10:25:21.109Z,14.88
2016-10-01T10:26:21.112Z,14.89
2016-10-01T10:27:21.098Z,14.92
2016-10-01T10:28:21.100Z,14.94
2016-10-01T10:29:21.088Z,14.94
2016-10-01T10:30:21.086Z,14.95
2016-10-01T10:31:21.085Z,14.91
2016-10-01T10:32:21.077Z,14.89
2016-10-01T10:33:21.077Z,14.86
2016-10-01T10:34:21.071Z,14.8
2016-10-01T10:35:21.065Z,14.81
2016-10-01T10:36:21.067Z,14.83
2016-10-01T10:37:21.060Z,14.86
2016-10-01T10:38:21.059Z,14.86
2016-10-01T10:39:21.052Z,14.8
2016-10-01T10:40:21.053Z,14.8
2016-10-01T10:41:21.047Z,14.83
2016-10-01T10:42:22.387Z,14.81
2016-10-01T10:43:21.035Z,14.83
2016-10-01T10:44:21.561Z,14.96
2016-10-01T10:45:21.772Z,14.99
2016-10-01T10:46:21.018Z,14.92
2016-10-01T10:47:21.620Z,15.03
2016-10-01T10:48:21.010Z,15.02
2016-10-01T10:49:21.198Z,15.07
2016-10-01T10:50:21.006Z,15.02
2016-10-01T10:51:22.334Z,15.1
2016-10-01T10:52:20.989Z,15.07
2016-10-01T10:53:21.658Z,15.13
2016-10-01T10:54:21.918Z,15.21
2016-10-01T10:55:21.016Z,15.32
2016-10-01T10:56:21.758Z,15.28
2016-10-01T10:57:20.974Z,15.25
2016-10-01T10:58:20.972Z,15.23
2016-10-01T10:59:20.965Z,15.19
2016-10-01T11:00:20.962Z,15.27
2016-10-01T11:01:20.958Z,15.35
2016-10-01T11:02:20.956Z,15.31
2016-10-01T11:03:20.949Z,15.34
2016-10-01T11:04:20.953Z,15.25
2016-10-01T11:05:20.942Z,15.27
2016-10-01T11:06:20.946Z,15.19
2016-10-01T11:07:20.934Z,15.17
2016-10-01T11:08:21.186Z,15.03
2016-10-01T11:09:20.928Z,14.92
2016-10-01T11:11:21.827Z,14.81
2016-10-01T11:12:35.833Z,14.69
2016-10-01T11:13:20.980Z,14.68
2016-10-01T11:14:21.212Z,14.69
2016-10-01T11:15:20.899Z,14.64
2016-10-01T11:16:20.901Z,14.58
2016-10-01T11:17:21.908Z,14.57
2016-10-01T11:18:22.548Z,14.5
2016-10-01T11:19:21.596Z,14.39
2016-10-01T11:21:35.793Z,14.4
2016-10-01T11:22:21.077Z,14.35
2016-10-01T11:23:21.118Z,14.39
2016-10-01T11:24:20.866Z,14.37
2016-10-01T11:25:20.864Z,14.36
2016-10-01T11:26:20.854Z,14.39
2016-10-01T11:27:20.853Z,14.35
2016-10-01T11:28:20.844Z,14.24
2016-10-01T11:29:20.840Z,14.25
2016-10-01T11:30:20.839Z,14.27
2016-10-01T11:31:20.833Z,14.33
2016-10-01T11:32:20.845Z,14.24
2016-10-01T11:33:20.819Z,14.24
2016-10-01T11:34:20.821Z,14.25
2016-10-01T11:35:20.823Z,14.42
2016-10-01T11:36:20.816Z,14.35
2016-10-01T11:37:20.806Z,14.39
2016-10-01T11:38:20.803Z,14.37
2016-10-01T11:39:20.801Z,14.4
2016-10-01T11:40:20.799Z,14.37
2016-10-01T11:41:20.791Z,14.45
2016-10-01T11:42:20.800Z,14.46
2016-10-01T11:43:20.776Z,14.54
2016-10-01T11:44:20.773Z,14.52
2016-10-01T11:45:20.774Z,14.61
2016-10-01T11:46:20.766Z,14.47
2016-10-01T11:47:20.767Z,14.47
2016-10-01T11:48:20.756Z,14.47
2016-10-01T11:49:20.763Z,14.42
2016-10-01T11:50:20.744Z,14.55
2016-10-01T11:51:20.743Z,14.51
2016-10-01T11:52:20.758Z,14.45
2016-10-01T11:53:20.735Z,14.37
2016-10-01T11:54:20.734Z,14.47
2016-10-01T11:55:20.727Z,14.45
2016-10-01T11:56:20.724Z,14.36
2016-10-01T11:57:20.717Z,14.27
2016-10-01T11:58:20.712Z,14.35
2016-10-01T11:59:20.704Z,14.33
2016-10-01T12:00:21.850Z,14.28
2016-10-01T12:01:22.270Z,14.28
2016-10-01T12:02:20.965Z,14.21
2016-10-01T12:03:20.686Z,14.32
2016-10-01T12:04:20.686Z,14.27
2016-10-01T12:05:20.678Z,14.27
2016-10-01T12:06:20.981Z,14.33
2016-10-01T12:07:20.669Z,14.32
2016-10-01T12:08:20.663Z,14.22
2016-10-01T12:09:21.304Z,14.33
2016-10-01T12:10:21.968Z,14.4
2016-10-01T12:11:20.645Z,14.35
2016-10-01T12:12:20.646Z,14.4
2016-10-01T12:13:21.906Z,14.35
2016-10-01T12:14:20.629Z,14.37
2016-10-01T12:15:20.687Z,14.29
2016-10-01T12:16:20.627Z,14.25
2016-10-01T12:17:20.621Z,14.35
2016-10-01T12:18:20.613Z,14.32
2016-10-01T12:19:20.611Z,14.28
2016-10-01T12:20:20.604Z,14.21
2016-10-01T12:21:20.600Z,14.18
2016-10-01T12:22:20.599Z,14.09
2016-10-01T12:23:20.893Z,14.25
2016-10-01T12:24:20.580Z,14.28
2016-10-01T12:25:20.582Z,14.18
2016-10-01T12:28:20.564Z,14.27
2016-10-01T12:30:21.508Z,14.29
2016-10-01T12:31:20.550Z,14.25
2016-10-01T12:32:20.548Z,14.32
2016-10-01T12:33:20.539Z,14.32
2016-10-01T12:34:20.540Z,14.32
2016-10-01T12:35:21.682Z,14.32
2016-10-01T12:36:21.477Z,14.29
2016-10-01T12:38:21.165Z,14.27
2016-10-01T12:39:21.120Z,14.33
2016-10-01T12:40:20.614Z,14.28
2016-10-01T12:41:20.512Z,14.46
2016-10-01T12:42:20.497Z,14.36
2016-10-01T12:43:20.492Z,14.43
2016-10-01T12:44:20.492Z,14.5
2016-10-01T12:45:20.482Z,14.57
2016-10-01T12:46:20.482Z,14.51
2016-10-01T12:47:20.797Z,14.52
2016-10-01T12:48:20.479Z,14.55
2016-10-01T12:49:20.464Z,14.68
2016-10-01T12:50:20.475Z,14.61
2016-10-01T12:51:20.455Z,14.65
2016-10-01T12:52:20.458Z,14.75
2016-10-01T12:53:20.451Z,14.8
2016-10-01T12:54:20.443Z,14.84
2016-10-01T12:55:20.434Z,14.86
2016-10-01T12:56:20.433Z,15.02
2016-10-01T12:57:20.432Z,15.09
2016-10-01T12:58:20.422Z,15.17
2016-10-01T12:59:20.416Z,15.19
2016-10-01T13:00:20.419Z,15.2
2016-10-01T13:01:20.408Z,15.32
2016-10-01T13:02:20.409Z,15.32
2016-10-01T13:03:20.403Z,15.36
2016-10-01T13:04:20.400Z,15.47
2016-10-01T13:05:20.401Z,15.49
2016-10-01T13:06:20.392Z,15.46
2016-10-01T13:07:20.391Z,15.38
2016-10-01T13:08:20.390Z,15.39
2016-10-01T13:09:20.381Z,15.38
2016-10-01T13:10:20.377Z,15.39
2016-10-01T13:11:20.373Z,15.44
2016-10-01T13:12:20.377Z,15.46
2016-10-01T13:13:20.375Z,15.46
2016-10-01T13:14:20.364Z,15.43
2016-10-01T13:15:20.363Z,15.41
2016-10-01T13:16:20.364Z,15.44
2016-10-01T13:17:20.350Z,15.53
2016-10-01T13:19:21.414Z,15.41
2016-10-01T13:20:21.964Z,15.47
2016-10-01T13:21:21.358Z,15.46